WJA46 CYHZ-EGPH
Flight info
| Callsign | WJA46 |
|---|---|
| Flight time | N/A |
| Altitude | 31000 |
| Route | IGTAS DCT NOTOP Q846 SILRO DCT YQX DCT ELSIR/M080F330 DCT 50N050W 52N040W 54N030W 56N020W DCT PIKIL DCT SOVED/N0462F330 DCT MIMKU DCT DONIB DCT MAC/N0431F250 N562 TRN DCT TLA |
| Aircraft | B738/M-SDE2E3FGHIRWXY/LB1 |
Departure
| Time | N/A |
|---|---|
| Airport | Halifax / Stanfield International Airport (CYHZ) |
Arrival
| Time | 2026-04-26 01:45 |
|---|---|
| Airport | Edinburgh Airport (EGPH) |
| Time | Latitude | Longitude | Altitude | Speed | Heading |
|---|---|---|---|---|---|
| 2026-04-26 00:38 | 56.01045 | -15.58571 | 31098 ft | 484 kts | 96° |
| 2026-04-26 00:38 | 56.00952 | -15.52508 | 31093 ft | 484 kts | 96° |
| 2026-04-26 00:39 | 56.00758 | -15.40569 | 31096 ft | 484 kts | 96° |
| 2026-04-26 00:39 | 56.00547 | -15.28558 | 31093 ft | 483 kts | 96° |
| 2026-04-26 00:40 | 56.00329 | -15.16650 | 31097 ft | 482 kts | 96° |
| 2026-04-26 00:40 | 56.00104 | -15.04733 | 31102 ft | 480 kts | 96° |
| 2026-04-26 00:41 | 55.99926 | -14.92832 | 31092 ft | 480 kts | 94° |
| 2026-04-26 00:41 | 55.99952 | -14.81324 | 31095 ft | 481 kts | 93° |
| 2026-04-26 00:42 | 56.00029 | -14.69352 | 31096 ft | 482 kts | 93° |
| 2026-04-26 00:42 | 56.00080 | -14.57374 | 31103 ft | 482 kts | 93° |
| 2026-04-26 00:43 | 56.00097 | -14.45420 | 31100 ft | 481 kts | 93° |
| 2026-04-26 00:43 | 56.00091 | -14.33522 | 31104 ft | 481 kts | 94° |
| 2026-04-26 00:44 | 56.00070 | -14.21578 | 31105 ft | 481 kts | 94° |
| 2026-04-26 00:44 | 56.00037 | -14.09718 | 31110 ft | 480 kts | 94° |
| 2026-04-26 00:45 | 55.99999 | -13.97825 | 31111 ft | 480 kts | 94° |
| 2026-04-26 00:45 | 56.00115 | -13.85944 | 31114 ft | 480 kts | 91° |
| 2026-04-26 00:46 | 56.00327 | -13.73976 | 31116 ft | 480 kts | 91° |
| 2026-04-26 00:46 | 56.00526 | -13.62120 | 31116 ft | 480 kts | 92° |
| 2026-04-26 00:47 | 56.00696 | -13.50161 | 31117 ft | 480 kts | 91° |
| 2026-04-26 00:47 | 56.00842 | -13.38276 | 31125 ft | 479 kts | 91° |
| 2026-04-26 00:48 | 56.00972 | -13.26386 | 31126 ft | 479 kts | 92° |
| 2026-04-26 00:48 | 56.01087 | -13.14487 | 31131 ft | 480 kts | 92° |
| 2026-04-26 00:49 | 56.01191 | -13.02642 | 31131 ft | 480 kts | 92° |
| 2026-04-26 00:49 | 56.01286 | -12.90749 | 31131 ft | 479 kts | 92° |
| 2026-04-26 00:50 | 56.01369 | -12.78871 | 31134 ft | 479 kts | 92° |
| 2026-04-26 00:50 | 56.01438 | -12.66977 | 31137 ft | 479 kts | 92° |
| 2026-04-26 00:51 | 56.01495 | -12.55132 | 31141 ft | 478 kts | 92° |
| 2026-04-26 00:51 | 56.01542 | -12.43245 | 31140 ft | 478 kts | 92° |
| 2026-04-26 00:52 | 56.01577 | -12.31395 | 31142 ft | 477 kts | 93° |
| 2026-04-26 00:52 | 56.01603 | -12.19567 | 31149 ft | 477 kts | 93° |
| 2026-04-26 00:53 | 56.01616 | -12.07774 | 31148 ft | 477 kts | 93° |
| 2026-04-26 00:53 | 56.01616 | -11.95866 | 31152 ft | 478 kts | 93° |
| 2026-04-26 00:54 | 56.01607 | -11.84041 | 31154 ft | 478 kts | 93° |
| 2026-04-26 00:54 | 56.01586 | -11.72168 | 31153 ft | 478 kts | 93° |
| 2026-04-26 00:55 | 56.01554 | -11.60315 | 31160 ft | 478 kts | 93° |
| 2026-04-26 00:55 | 56.01512 | -11.48496 | 31163 ft | 477 kts | 93° |
| 2026-04-26 00:56 | 56.01459 | -11.36701 | 31165 ft | 478 kts | 93° |
| 2026-04-26 00:56 | 56.01394 | -11.24857 | 31165 ft | 477 kts | 94° |
| 2026-04-26 00:57 | 56.01317 | -11.13013 | 31165 ft | 478 kts | 94° |
| 2026-04-26 00:57 | 56.01226 | -11.01182 | 31169 ft | 477 kts | 94° |
| 2026-04-26 00:58 | 56.01125 | -10.89329 | 31160 ft | 477 kts | 94° |
| 2026-04-26 00:58 | 56.01015 | -10.77565 | 31158 ft | 478 kts | 94° |
| 2026-04-26 00:59 | 56.00893 | -10.65706 | 31156 ft | 478 kts | 94° |
| 2026-04-26 00:59 | 56.00759 | -10.53835 | 31160 ft | 478 kts | 94° |
| 2026-04-26 01:00 | 56.00613 | -10.42037 | 31165 ft | 478 kts | 94° |
| 2026-04-26 01:00 | 56.00455 | -10.30166 | 31166 ft | 477 kts | 95° |
| 2026-04-26 01:01 | 56.00284 | -10.18323 | 31174 ft | 479 kts | 95° |
| 2026-04-26 01:01 | 56.00098 | -10.06486 | 31174 ft | 479 kts | 95° |
| 2026-04-26 01:02 | 55.99496 | -9.94718 | 31175 ft | 476 kts | 102° |
| 2026-04-26 01:02 | 55.98283 | -9.83120 | 31169 ft | 474 kts | 104° |
| 2026-04-26 01:03 | 55.96919 | -9.71667 | 31170 ft | 473 kts | 105° |
| 2026-04-26 01:03 | 55.95539 | -9.60187 | 31173 ft | 473 kts | 105° |
| 2026-04-26 01:04 | 55.94180 | -9.48742 | 31174 ft | 473 kts | 105° |
| 2026-04-26 01:04 | 55.92823 | -9.37246 | 31177 ft | 473 kts | 104° |
| 2026-04-26 01:05 | 55.91478 | -9.25859 | 31180 ft | 472 kts | 105° |
| 2026-04-26 01:05 | 55.90121 | -9.14425 | 31178 ft | 472 kts | 105° |
| 2026-04-26 01:06 | 55.88757 | -9.03026 | 31180 ft | 472 kts | 105° |
| 2026-04-26 01:06 | 55.87372 | -8.91566 | 31176 ft | 473 kts | 105° |
| 2026-04-26 01:07 | 55.85988 | -8.80183 | 31181 ft | 474 kts | 105° |
| 2026-04-26 01:07 | 55.84586 | -8.68727 | 31181 ft | 473 kts | 105° |
| 2026-04-26 01:08 | 55.83183 | -8.57359 | 31182 ft | 473 kts | 105° |
| 2026-04-26 01:08 | 55.81761 | -8.45950 | 31184 ft | 473 kts | 105° |
| 2026-04-26 01:09 | 55.80333 | -8.34600 | 31183 ft | 472 kts | 106° |
| 2026-04-26 01:09 | 55.78893 | -8.23245 | 31187 ft | 473 kts | 106° |
| 2026-04-26 01:10 | 55.77433 | -8.11832 | 31194 ft | 474 kts | 106° |
| 2026-04-26 01:10 | 55.75964 | -8.00429 | 31192 ft | 475 kts | 106° |
| 2026-04-26 01:11 | 55.74480 | -7.89007 | 31189 ft | 474 kts | 105° |
| 2026-04-26 01:11 | 55.72991 | -7.77651 | 31192 ft | 475 kts | 105° |
| 2026-04-26 01:12 | 55.71489 | -7.66274 | 31194 ft | 473 kts | 105° |
| 2026-04-26 01:12 | 55.69990 | -7.54981 | 31193 ft | 473 kts | 105° |
| 2026-04-26 01:13 | 55.68469 | -7.43622 | 31196 ft | 474 kts | 105° |
| 2026-04-26 01:13 | 55.66936 | -7.32276 | 31192 ft | 474 kts | 107° |
| 2026-04-26 01:14 | 55.65396 | -7.20949 | 31196 ft | 474 kts | 106° |
| 2026-04-26 01:14 | 55.63846 | -7.09633 | 31195 ft | 474 kts | 106° |
| 2026-04-26 01:15 | 55.62284 | -6.98315 | 31194 ft | 474 kts | 106° |
| 2026-04-26 01:15 | 55.60724 | -6.87092 | 31192 ft | 473 kts | 106° |
| 2026-04-26 01:16 | 55.59134 | -6.75738 | 31196 ft | 474 kts | 106° |
| 2026-04-26 01:16 | 55.57547 | -6.64500 | 31197 ft | 474 kts | 106° |
| 2026-04-26 01:17 | 55.55946 | -6.53243 | 31200 ft | 471 kts | 106° |
| 2026-04-26 01:17 | 55.54341 | -6.42037 | 31205 ft | 475 kts | 106° |
| 2026-04-26 01:18 | 55.52705 | -6.30710 | 31211 ft | 475 kts | 107° |
| 2026-04-26 01:18 | 55.51072 | -6.19484 | 31215 ft | 476 kts | 107° |
| 2026-04-26 01:19 | 55.49421 | -6.08205 | 31086 ft | 472 kts | 107° |
| 2026-04-26 01:19 | 55.48607 | -6.02662 | 30608 ft | 467 kts | 107° |
| 2026-04-26 01:19 | 55.47786 | -5.97091 | 29888 ft | 466 kts | 107° |
| 2026-04-26 01:20 | 55.46980 | -5.91640 | 29057 ft | 468 kts | 107° |
| 2026-04-26 01:20 | 55.46150 | -5.86050 | 28124 ft | 471 kts | 107° |
| 2026-04-26 01:20 | 55.45316 | -5.80457 | 27126 ft | 475 kts | 107° |
| 2026-04-26 01:20 | 55.44456 | -5.74839 | 26053 ft | 480 kts | 107° |
| 2026-04-26 01:21 | 55.43499 | -5.69236 | 24964 ft | 483 kts | 110° |
| 2026-04-26 01:21 | 55.42318 | -5.63771 | 23898 ft | 485 kts | 115° |
| 2026-04-26 01:21 | 55.40902 | -5.58430 | 23145 ft | 479 kts | 118° |
| 2026-04-26 01:21 | 55.39370 | -5.53286 | 22441 ft | 474 kts | 120° |
| 2026-04-26 01:22 | 55.37792 | -5.48295 | 21684 ft | 470 kts | 121° |
| 2026-04-26 01:22 | 55.36168 | -5.43299 | 20905 ft | 467 kts | 121° |
| 2026-04-26 01:22 | 55.34563 | -5.38412 | 20120 ft | 463 kts | 121° |
| 2026-04-26 01:22 | 55.32999 | -5.33654 | 19342 ft | 447 kts | 122° |
| 2026-04-26 01:23 | 55.31475 | -5.29006 | 18617 ft | 432 kts | 122° |
| 2026-04-26 01:23 | 55.30000 | -5.24511 | 17899 ft | 418 kts | 122° |
| 2026-04-26 01:23 | 55.28586 | -5.20200 | 17191 ft | 406 kts | 122° |
| 2026-04-26 01:23 | 55.27215 | -5.16013 | 16496 ft | 396 kts | 122° |
| 2026-04-26 01:24 | 55.25837 | -5.11804 | 15808 ft | 400 kts | 122° |
| 2026-04-26 01:24 | 55.24451 | -5.07580 | 15121 ft | 409 kts | 122° |
| 2026-04-26 01:24 | 55.23037 | -5.03269 | 14406 ft | 403 kts | 122° |
| 2026-04-26 01:24 | 55.21676 | -4.99116 | 13696 ft | 389 kts | 122° |
| 2026-04-26 01:25 | 55.20444 | -4.95050 | 13056 ft | 376 kts | 116° |
| 2026-04-26 01:25 | 55.19639 | -4.90681 | 12456 ft | 377 kts | 100° |
| 2026-04-26 01:25 | 55.19627 | -4.86102 | 12255 ft | 386 kts | 83° |
| 2026-04-26 01:25 | 55.20264 | -4.81523 | 12238 ft | 393 kts | 73° |
| 2026-04-26 01:26 | 55.21122 | -4.77045 | 12236 ft | 381 kts | 71° |
| 2026-04-26 01:26 | 55.22043 | -4.72678 | 12251 ft | 390 kts | 70° |
| 2026-04-26 01:26 | 55.23024 | -4.68149 | 12225 ft | 399 kts | 70° |
| 2026-04-26 01:26 | 55.24011 | -4.63581 | 12235 ft | 402 kts | 70° |
| 2026-04-26 01:27 | 55.24987 | -4.59014 | 12235 ft | 401 kts | 70° |
| 2026-04-26 01:27 | 55.25951 | -4.54452 | 12237 ft | 401 kts | 70° |
| 2026-04-26 01:27 | 55.26916 | -4.49836 | 12243 ft | 401 kts | 70° |
| 2026-04-26 01:27 | 55.27864 | -4.45263 | 12233 ft | 400 kts | 70° |
| 2026-04-26 01:28 | 55.28818 | -4.40634 | 12241 ft | 401 kts | 70° |
| 2026-04-26 01:28 | 55.29611 | -4.36775 | 12236 ft | 401 kts | 70° |
| 2026-04-26 01:28 | 55.30559 | -4.32148 | 12229 ft | 401 kts | 71° |
| 2026-04-26 01:28 | 55.31490 | -4.27603 | 12236 ft | 400 kts | 71° |
| 2026-04-26 01:29 | 55.32435 | -4.22984 | 12235 ft | 401 kts | 71° |
| 2026-04-26 01:29 | 55.33378 | -4.18362 | 12239 ft | 400 kts | 71° |
| 2026-04-26 01:29 | 55.34310 | -4.13769 | 12236 ft | 401 kts | 71° |
| 2026-04-26 01:29 | 55.35237 | -4.09178 | 12238 ft | 400 kts | 71° |
| 2026-04-26 01:30 | 55.36167 | -4.04559 | 12228 ft | 401 kts | 71° |
| 2026-04-26 01:30 | 55.37095 | -3.99946 | 12227 ft | 400 kts | 71° |
| 2026-04-26 01:30 | 55.38013 | -3.95374 | 12238 ft | 400 kts | 71° |
| 2026-04-26 01:30 | 55.38947 | -3.90712 | 12241 ft | 401 kts | 71° |
| 2026-04-26 01:31 | 55.39867 | -3.86122 | 12244 ft | 400 kts | 71° |
| 2026-04-26 01:31 | 55.40795 | -3.81482 | 12247 ft | 401 kts | 71° |
| 2026-04-26 01:31 | 55.41711 | -3.76889 | 12248 ft | 400 kts | 71° |
| 2026-04-26 01:31 | 55.42642 | -3.72213 | 12238 ft | 400 kts | 71° |
| 2026-04-26 01:32 | 55.43547 | -3.67658 | 12157 ft | 397 kts | 71° |
| 2026-04-26 01:32 | 55.44445 | -3.63131 | 11748 ft | 387 kts | 71° |
| 2026-04-26 01:32 | 55.45319 | -3.58710 | 11439 ft | 372 kts | 71° |
| 2026-04-26 01:32 | 55.46153 | -3.54483 | 11319 ft | 354 kts | 71° |
| 2026-04-26 01:33 | 55.46952 | -3.50533 | 11198 ft | 337 kts | 68° |
| 2026-04-26 01:33 | 55.47954 | -3.46930 | 11054 ft | 323 kts | 56° |
| 2026-04-26 01:33 | 55.49472 | -3.44177 | 10905 ft | 308 kts | 30° |
| 2026-04-26 01:33 | 55.51444 | -3.42899 | 10648 ft | 297 kts | 5° |
| 2026-04-26 01:34 | 55.53479 | -3.42945 | 10275 ft | 291 kts | 348° |
| 2026-04-26 01:34 | 55.55395 | -3.43796 | 10084 ft | 278 kts | 336° |
| 2026-04-26 01:34 | 55.57050 | -3.45474 | 9709 ft | 273 kts | 319° |
| 2026-04-26 01:34 | 55.58461 | -3.47645 | 9364 ft | 269 kts | 315° |
| 2026-04-26 01:35 | 55.59833 | -3.49862 | 9028 ft | 265 kts | 316° |
| 2026-04-26 01:35 | 55.61209 | -3.52012 | 8722 ft | 260 kts | 317° |
| 2026-04-26 01:35 | 55.62576 | -3.54076 | 8381 ft | 255 kts | 317° |
| 2026-04-26 01:35 | 55.63908 | -3.56062 | 8075 ft | 249 kts | 317° |
| 2026-04-26 01:36 | 55.65213 | -3.58007 | 7767 ft | 244 kts | 317° |
| 2026-04-26 01:36 | 55.66506 | -3.59937 | 7462 ft | 239 kts | 317° |
| 2026-04-26 01:36 | 55.67758 | -3.61810 | 7176 ft | 235 kts | 317° |
| 2026-04-26 01:37 | 55.70266 | -3.65571 | 6313 ft | 238 kts | 317° |
| 2026-04-26 01:37 | 55.71515 | -3.67444 | 6016 ft | 231 kts | 317° |
| 2026-04-26 01:37 | 55.72698 | -3.69216 | 5886 ft | 216 kts | 317° |
| 2026-04-26 01:37 | 55.73822 | -3.70904 | 5708 ft | 206 kts | 317° |
| 2026-04-26 01:38 | 55.74893 | -3.72515 | 5484 ft | 201 kts | 317° |
| 2026-04-26 01:38 | 55.75944 | -3.74098 | 5287 ft | 192 kts | 317° |
| 2026-04-26 01:38 | 55.76941 | -3.75590 | 5088 ft | 185 kts | 320° |
| 2026-04-26 01:38 | 55.78040 | -3.76622 | 4962 ft | 178 kts | 344° |
| 2026-04-26 01:39 | 55.79275 | -3.76840 | 4851 ft | 177 kts | 0° |
| 2026-04-26 01:39 | 55.80482 | -3.76546 | 4713 ft | 175 kts | 16° |
| 2026-04-26 01:39 | 55.81576 | -3.75578 | 4556 ft | 180 kts | 37° |
| 2026-04-26 01:39 | 55.82473 | -3.74026 | 4380 ft | 179 kts | 52° |
| 2026-04-26 01:40 | 55.83143 | -3.72193 | 4218 ft | 177 kts | 60° |
| 2026-04-26 01:40 | 55.83750 | -3.70296 | 4064 ft | 177 kts | 60° |
| 2026-04-26 01:40 | 55.84447 | -3.68494 | 3969 ft | 175 kts | 55° |
| 2026-04-26 01:40 | 55.85051 | -3.66588 | 3919 ft | 177 kts | 65° |
| 2026-04-26 01:41 | 55.85625 | -3.64649 | 3646 ft | 179 kts | 60° |
| 2026-04-26 01:41 | 55.86258 | -3.62785 | 3367 ft | 173 kts | 59° |
| 2026-04-26 01:41 | 55.86880 | -3.60997 | 3182 ft | 167 kts | 59° |
| 2026-04-26 01:41 | 55.87498 | -3.59197 | 2884 ft | 169 kts | 60° |
| 2026-04-26 01:42 | 55.88096 | -3.57454 | 2640 ft | 163 kts | 60° |
| 2026-04-26 01:42 | 55.88686 | -3.55730 | 2411 ft | 163 kts | 60° |
| 2026-04-26 01:42 | 55.89273 | -3.54018 | 2181 ft | 160 kts | 60° |
| 2026-04-26 01:42 | 55.89849 | -3.52339 | 1953 ft | 158 kts | 60° |
| 2026-04-26 01:43 | 55.90418 | -3.50676 | 1739 ft | 157 kts | 60° |
| 2026-04-26 01:43 | 55.90981 | -3.49029 | 1537 ft | 155 kts | 60° |
| 2026-04-26 01:43 | 55.91542 | -3.47386 | 1294 ft | 153 kts | 59° |
| 2026-04-26 01:43 | 55.92078 | -3.45818 | 1064 ft | 142 kts | 59° |
| 2026-04-26 01:44 | 55.92587 | -3.44324 | 897 ft | 141 kts | 59° |
| 2026-04-26 01:44 | 55.93096 | -3.42831 | 694 ft | 141 kts | 59° |
| 2026-04-26 01:44 | 55.93608 | -3.41326 | 501 ft | 141 kts | 59° |
| 2026-04-26 01:44 | 55.94118 | -3.39832 | 309 ft | 140 kts | 59° |
| 2026-04-26 01:45 | 55.94617 | -3.38363 | 122 ft | 132 kts | 59° |
| 2026-04-26 01:45 | 55.95038 | -3.37119 | 98 ft | 89 kts | 57° |
| 2026-04-26 01:45 | 55.95224 | -3.36608 | 101 ft | 30 kts | 57° |
| 2026-04-26 01:45 | 55.95245 | -3.36420 | 102 ft | 8 kts | 120° |
| 2026-04-26 01:46 | 55.95141 | -3.36320 | 102 ft | 17 kts | 191° |
| 2026-04-26 01:46 | 55.95112 | -3.36355 | 102 ft | 4 kts | 219° |
| 2026-04-26 01:46 | 55.95056 | -3.36388 | 102 ft | 11 kts | 179° |
| 2026-04-26 01:46 | 55.94994 | -3.36462 | 102 ft | 12 kts | 230° |
| 2026-04-26 01:47 | 55.94949 | -3.36577 | 102 ft | 10 kts | 242° |
| 2026-04-26 01:47 | 55.94910 | -3.36712 | 101 ft | 16 kts | 242° |
| 2026-04-26 01:47 | 55.94834 | -3.36769 | 102 ft | 10 kts | 168° |
| 2026-04-26 01:47 | 55.94778 | -3.36739 | 103 ft | 7 kts | 129° |
| 2026-04-26 01:48 | 55.94756 | -3.36661 | 103 ft | 5 kts | 102° |
| 2026-04-26 01:48 | 55.94753 | -3.36622 | 103 ft | 0 kts | 91° |